createdAt,value
2023-02-28T00:01:14.214Z,99240.31
2023-02-28T00:04:02.073Z,99233.34
2023-02-28T00:06:50.164Z,99233.34
2023-02-28T00:09:38.144Z,99231.44
2023-02-28T00:12:28.378Z,99240.81
2023-02-28T00:15:17.050Z,99225.31
2023-02-28T00:18:05.765Z,99233.16
2023-02-28T00:20:55.846Z,99234.13
2023-02-28T00:23:43.739Z,99232.38
2023-02-28T00:26:31.934Z,99233.34
2023-02-28T00:29:21.129Z,99228.13
2023-02-28T00:32:09.266Z,99231.59
2023-02-28T00:34:57.546Z,99231.72
2023-02-28T00:37:45.521Z,99233.56
2023-02-28T00:40:33.829Z,99237.06
2023-02-28T00:43:21.658Z,99237.13
2023-02-28T00:46:10.986Z,99226.81
2023-02-28T00:48:58.966Z,99240.69
2023-02-28T00:51:46.564Z,99233.84
2023-02-28T00:54:34.688Z,99234.78
2023-02-28T00:57:22.849Z,99233.97
2023-02-28T01:00:12.613Z,99228.88
2023-02-28T01:03:01.751Z,99228.88
2023-02-28T01:05:50.088Z,99230.72
2023-02-28T01:08:38.072Z,99228.13
2023-02-28T01:11:26.287Z,99221.25
2023-02-28T01:14:15.352Z,99220.38
2023-02-28T01:17:03.240Z,99220.47
2023-02-28T01:19:54.799Z,99215.22
2023-02-28T01:22:42.579Z,99213.47
2023-02-28T01:25:30.707Z,99217.75
2023-02-28T01:28:19.100Z,99213.47
2023-02-28T01:31:07.505Z,99208.28
2023-02-28T01:33:55.511Z,99210.00
2023-02-28T01:36:45.011Z,99210.00
2023-02-28T01:39:32.898Z,99206.50
2023-02-28T01:42:20.872Z,99198.59
2023-02-28T01:45:24.291Z,99206.31
2023-02-28T01:48:13.527Z,99206.41
2023-02-28T01:51:06.734Z,99202.09
2023-02-28T01:54:02.328Z,99202.25
2023-02-28T01:56:55.812Z,99204.88
2023-02-28T01:59:47.228Z,99207.53
2023-02-28T02:02:35.219Z,99202.28
2023-02-28T02:05:24.669Z,99200.53
2023-02-28T02:08:15.677Z,99202.25
2023-02-28T02:11:05.602Z,99187.50
2023-02-28T02:14:15.445Z,99193.50
2023-02-28T02:17:17.377Z,99191.84
2023-02-28T02:20:53.356Z,99190.34
2023-02-28T02:24:16.445Z,99182.59
2023-02-28T02:27:25.740Z,99187.03
2023-02-28T02:30:42.759Z,99177.53
2023-02-28T02:34:07.500Z,99182.78
2023-02-28T02:37:06.248Z,99177.59
2023-02-28T02:40:00.352Z,99181.88
2023-02-28T02:42:56.173Z,99180.28
2023-02-28T02:45:49.966Z,99177.59
2023-02-28T02:48:43.615Z,99174.19
2023-02-28T02:51:34.810Z,99172.50
2023-02-28T02:54:29.809Z,99167.22
2023-02-28T02:57:23.810Z,99163.75
2023-02-28T03:00:13.593Z,99168.03
2023-02-28T03:03:03.370Z,99174.91
2023-02-28T03:05:52.742Z,99173.94
2023-02-28T03:08:41.079Z,99174.84
2023-02-28T03:11:31.708Z,99176.31
2023-02-28T03:14:34.511Z,99172.78
2023-02-28T03:17:45.794Z,99175.22
2023-02-28T03:20:42.980Z,99176.97
2023-02-28T03:23:40.441Z,99181.34
2023-02-28T03:26:31.492Z,99184.03
2023-02-28T03:29:25.682Z,99183.88
2023-02-28T03:32:22.649Z,99181.38
2023-02-28T03:35:22.853Z,99176.75
2023-02-28T03:38:16.022Z,99189.53
2023-02-28T03:41:12.306Z,99183.63
2023-02-28T03:44:07.888Z,99186.13
2023-02-28T03:47:00.767Z,99185.44
2023-02-28T03:49:55.212Z,99192.19
2023-02-28T03:52:49.056Z,99184.44
2023-02-28T03:55:42.627Z,99184.53
2023-02-28T03:58:35.435Z,99190.72
2023-02-28T04:01:29.849Z,99190.72
2023-02-28T04:04:19.219Z,99189.03
2023-02-28T04:07:10.696Z,99196.81
2023-02-28T04:09:58.836Z,99190.91
2023-02-28T04:12:46.891Z,99190.91
2023-02-28T04:15:34.906Z,99190.94
2023-02-28T04:18:24.094Z,99193.41
2023-02-28T04:21:12.701Z,99195.91
2023-02-28T04:24:01.634Z,99199.50
2023-02-28T04:26:51.321Z,99194.50
2023-02-28T04:29:39.365Z,99190.09
2023-02-28T04:32:27.165Z,99193.41
2023-02-28T04:35:16.690Z,99187.53
2023-02-28T04:38:04.676Z,99191.78
2023-02-28T04:40:52.681Z,99197.97
2023-02-28T04:43:40.941Z,99194.31
2023-02-28T04:46:28.882Z,99191.81
2023-02-28T04:49:16.491Z,99194.41
2023-02-28T04:52:08.581Z,99201.47
2023-02-28T04:54:56.446Z,99197.97
2023-02-28T04:57:44.700Z,99197.78
2023-02-28T05:00:32.745Z,99194.41
2023-02-28T05:03:21.743Z,99198.75
2023-02-28T05:06:10.143Z,99202.03
2023-02-28T05:08:59.895Z,99204.81
2023-02-28T05:11:47.976Z,99204.97
2023-02-28T05:14:36.000Z,99205.06
2023-02-28T05:17:23.871Z,99206.00
2023-02-28T05:20:15.632Z,99212.13
2023-02-28T05:23:04.518Z,99207.84
2023-02-28T05:25:53.916Z,99202.66
2023-02-28T05:28:42.097Z,99205.28
2023-02-28T05:31:30.361Z,99206.94
2023-02-28T05:34:18.473Z,99207.06
2023-02-28T05:37:06.307Z,99211.44
2023-02-28T05:39:53.872Z,99209.72
2023-02-28T05:42:43.715Z,99212.38
2023-02-28T05:45:31.418Z,99215.03
2023-02-28T05:48:19.484Z,99214.19
2023-02-28T05:51:08.172Z,99213.38
2023-02-28T05:53:56.058Z,99213.34
2023-02-28T05:56:45.102Z,99218.41
2023-02-28T05:59:34.384Z,99211.56
2023-02-28T06:02:22.122Z,99214.84
2023-02-28T06:05:15.596Z,99220.91
2023-02-28T06:08:03.584Z,99217.50
2023-02-28T06:10:51.507Z,99229.44
2023-02-28T06:13:39.769Z,99218.97
2023-02-28T06:16:29.666Z,99224.03
2023-02-28T06:19:17.673Z,99230.94
2023-02-28T06:22:05.796Z,99232.69
2023-02-28T06:24:53.805Z,99225.72
2023-02-28T06:27:41.874Z,99231.00
2023-02-28T06:30:32.108Z,99231.03
2023-02-28T06:33:21.234Z,99236.22
2023-02-28T06:36:10.791Z,99242.94
2023-02-28T06:38:59.322Z,99242.06
2023-02-28T06:41:55.208Z,99245.03
2023-02-28T06:44:44.304Z,99250.97
2023-02-28T06:47:33.722Z,99247.50
2023-02-28T06:50:23.263Z,99246.47
2023-02-28T06:53:11.256Z,99248.84
2023-02-28T06:56:01.153Z,99248.78
2023-02-28T06:58:50.378Z,99247.59
2023-02-28T07:01:38.578Z,99260.34
2023-02-28T07:04:26.578Z,99260.72
2023-02-28T07:07:15.938Z,99259.84
2023-02-28T07:10:03.829Z,99256.09
2023-02-28T07:12:52.445Z,99262.16
2023-02-28T07:15:43.670Z,99269.59
2023-02-28T07:18:32.682Z,99262.50
2023-02-28T07:21:20.420Z,99259.09
2023-02-28T07:24:10.083Z,99265.88
2023-02-28T07:27:00.241Z,99265.47
2023-02-28T07:29:48.720Z,99264.72
2023-02-28T07:32:39.638Z,99266.28
2023-02-28T07:35:27.715Z,99266.25
2023-02-28T07:38:15.486Z,99264.31
2023-02-28T07:41:06.140Z,99265.81
2023-02-28T07:43:56.872Z,99266.47
2023-02-28T07:46:44.911Z,99262.59
2023-02-28T07:49:33.082Z,99261.47
2023-02-28T07:52:21.102Z,99259.91
2023-02-28T07:55:10.557Z,99265.75
2023-02-28T07:57:59.969Z,99259.31
2023-02-28T08:00:48.089Z,99263.59
2023-02-28T08:03:36.339Z,99269.06
2023-02-28T08:06:25.882Z,99262.19
2023-02-28T08:09:15.667Z,99263.88
2023-02-28T08:12:03.803Z,99259.81
2023-02-28T08:14:52.985Z,99266.75
2023-02-28T08:17:41.106Z,99260.28
2023-02-28T08:20:29.201Z,99265.34
2023-02-28T08:23:17.180Z,99254.78
2023-02-28T08:26:05.992Z,99244.28
2023-02-28T08:28:55.234Z,99245.47
2023-02-28T08:31:46.035Z,99243.38
2023-02-28T08:34:34.217Z,99248.19
2023-02-28T08:37:21.994Z,99242.44
2023-02-28T08:40:11.174Z,99235.34
2023-02-28T08:42:59.151Z,99235.09
2023-02-28T08:45:48.358Z,99241.47
2023-02-28T08:48:39.616Z,99233.84
2023-02-28T08:51:28.505Z,99234.53
2023-02-28T08:54:20.224Z,99240.00
2023-02-28T08:57:10.247Z,99227.97
2023-02-28T08:59:58.393Z,99231.97
2023-02-28T09:02:46.599Z,99231.47
2023-02-28T09:05:35.647Z,99228.31
2023-02-28T09:08:24.046Z,99218.19
2023-02-28T09:11:13.190Z,99224.53
2023-02-28T09:14:05.531Z,99217.97
2023-02-28T09:16:53.809Z,99223.75
2023-02-28T09:19:41.662Z,99216.34
2023-02-28T09:22:31.058Z,99215.75
2023-02-28T09:25:18.842Z,99222.13
2023-02-28T09:28:07.180Z,99215.59
2023-02-28T09:30:58.264Z,99220.38
2023-02-28T09:33:46.458Z,99225.06
2023-02-28T09:36:44.803Z,99229.06
2023-02-28T09:39:34.918Z,99222.78
2023-02-28T09:42:28.021Z,99220.44
2023-02-28T09:45:21.876Z,99217.34
2023-02-28T09:48:16.415Z,99218.47
2023-02-28T09:51:07.723Z,99219.78
2023-02-28T09:54:01.299Z,99223.44
2023-02-28T09:56:55.459Z,99226.13
2023-02-28T09:59:54.103Z,99213.50
2023-02-28T10:02:53.320Z,99223.25
2023-02-28T10:05:44.512Z,99230.19
2023-02-28T10:08:43.752Z,99222.50
2023-02-28T10:11:35.352Z,99224.44
2023-02-28T10:14:27.331Z,99219.78
2023-02-28T10:17:18.532Z,99226.13
2023-02-28T10:20:14.627Z,99228.81
2023-02-28T10:23:11.022Z,99223.56
2023-02-28T10:26:02.756Z,99221.34
2023-02-28T10:28:50.640Z,99218.63
2023-02-28T10:31:41.717Z,99216.50
2023-02-28T10:34:29.702Z,99207.69
2023-02-28T10:37:17.762Z,99213.03
2023-02-28T10:40:09.601Z,99205.72
2023-02-28T10:43:01.535Z,99198.13
2023-02-28T10:46:01.946Z,99200.44
2023-02-28T10:49:04.032Z,99188.84
2023-02-28T10:51:54.762Z,99191.28
2023-02-28T10:54:42.745Z,99185.25
2023-02-28T10:57:33.505Z,99178.66
2023-02-28T11:00:23.982Z,99188.72
2023-02-28T11:03:27.305Z,99187.94
2023-02-28T11:06:23.092Z,99192.38
2023-02-28T11:09:22.702Z,99186.25
2023-02-28T11:12:23.897Z,99186.03
2023-02-28T11:15:27.069Z,99183.44
2023-02-28T11:18:27.227Z,99182.19
2023-02-28T11:21:26.978Z,99174.13
2023-02-28T11:24:25.268Z,99179.63
2023-02-28T11:27:28.987Z,99174.03
2023-02-28T11:30:32.349Z,99165.59
2023-02-28T11:33:30.626Z,99180.56
2023-02-28T11:36:21.540Z,99167.22
2023-02-28T11:39:14.553Z,99164.03
2023-02-28T11:42:17.106Z,99162.88
2023-02-28T11:45:24.994Z,99164.88
2023-02-28T11:48:20.846Z,99163.25
2023-02-28T11:51:21.758Z,99153.81
2023-02-28T11:54:37.561Z,99162.13
2023-02-28T11:57:42.012Z,99147.44
2023-02-28T12:00:42.595Z,99152.91
2023-02-28T12:03:40.322Z,99140.13
2023-02-28T12:06:35.270Z,99145.72
2023-02-28T12:09:43.436Z,99140.13
2023-02-28T12:12:44.411Z,99148.44
2023-02-28T12:16:00.862Z,99145.84
2023-02-28T12:19:04.362Z,99146.78
2023-02-28T12:22:14.010Z,99127.22
2023-02-28T12:25:31.343Z,99125.94
2023-02-28T12:28:25.666Z,99127.31
2023-02-28T12:31:20.265Z,99128.47
2023-02-28T12:34:13.377Z,99117.16
2023-02-28T12:37:08.355Z,99119.38
2023-02-28T12:40:04.446Z,99114.22
2023-02-28T12:42:57.361Z,99105.16
2023-02-28T12:45:50.307Z,99104.16
2023-02-28T12:48:41.710Z,99103.94
2023-02-28T12:52:27.203Z,99107.66
2023-02-28T12:55:24.855Z,99102.84
2023-02-28T12:58:22.630Z,99099.06
2023-02-28T13:01:44.701Z,99102.84
2023-02-28T13:04:55.161Z,99115.41
2023-02-28T13:08:06.236Z,99107.91
2023-02-28T13:10:56.171Z,99111.81
2023-02-28T13:13:47.920Z,99107.41
2023-02-28T13:16:58.774Z,99106.97
2023-02-28T13:19:58.524Z,99109.28
2023-02-28T13:22:48.185Z,99106.03
2023-02-28T13:25:58.669Z,99106.53
2023-02-28T13:29:28.462Z,99105.84
2023-02-28T13:32:37.708Z,99099.97
2023-02-28T13:35:46.125Z,99100.09
2023-02-28T13:38:41.764Z,99099.50
2023-02-28T13:41:49.826Z,99095.13
2023-02-28T13:45:22.421Z,99095.81
2023-02-28T13:48:32.115Z,99097.16
2023-02-28T13:51:41.860Z,99092.81
2023-02-28T13:54:41.796Z,99086.78
2023-02-28T13:57:43.174Z,99088.03
2023-02-28T14:00:53.985Z,99096.34
2023-02-28T14:04:04.314Z,99096.56
2023-02-28T14:06:54.451Z,99088.19
2023-02-28T14:09:47.985Z,99084.25
2023-02-28T14:12:57.223Z,99088.31
2023-02-28T14:15:59.327Z,99090.41
2023-02-28T14:18:58.240Z,99082.94
2023-02-28T14:22:07.109Z,99083.91
2023-02-28T14:25:13.194Z,99084.75
2023-02-28T14:28:12.230Z,99082.13
2023-02-28T14:31:09.319Z,99088.50
2023-02-28T14:34:24.387Z,99083.53
2023-02-28T14:37:18.377Z,99081.41
2023-02-28T14:40:14.126Z,99080.78
2023-02-28T14:43:03.834Z,99084.31
2023-02-28T14:45:55.305Z,99087.50
2023-02-28T14:48:46.683Z,99086.13
2023-02-28T14:51:36.947Z,99087.41
2023-02-28T14:54:25.939Z,99083.75
2023-02-28T14:57:25.726Z,99079.28
2023-02-28T15:00:19.002Z,99076.19
2023-02-28T15:03:21.249Z,99079.84
2023-02-28T15:06:16.619Z,99077.06
2023-02-28T15:09:16.013Z,99078.75
2023-02-28T15:12:03.777Z,99076.78
2023-02-28T15:14:53.648Z,99072.34
2023-02-28T15:17:42.401Z,99078.91
2023-02-28T15:20:30.691Z,99080.16
2023-02-28T15:23:20.698Z,99082.41
2023-02-28T15:26:13.051Z,99082.56
2023-02-28T15:29:04.127Z,99088.28
2023-02-28T15:31:58.309Z,99093.59
2023-02-28T15:34:47.329Z,99085.75
2023-02-28T15:37:48.884Z,99082.25
2023-02-28T15:40:40.089Z,99087.44
2023-02-28T15:43:30.905Z,99088.53
2023-02-28T15:46:21.450Z,99089.41
2023-02-28T15:49:21.604Z,99093.88
2023-02-28T15:52:17.769Z,99096.00
2023-02-28T15:55:13.755Z,99087.56
2023-02-28T15:58:04.429Z,99090.53
2023-02-28T16:01:10.397Z,99093.56
2023-02-28T16:03:59.541Z,99087.75
2023-02-28T16:06:49.431Z,99086.72
2023-02-28T16:09:39.045Z,99091.31
2023-02-28T16:12:29.919Z,99088.97
2023-02-28T16:15:22.648Z,99095.84
2023-02-28T16:18:14.197Z,99101.28
2023-02-28T16:21:02.078Z,99105.41
2023-02-28T16:23:50.070Z,99102.94
2023-02-28T16:26:40.208Z,99102.38
2023-02-28T16:29:31.973Z,99108.94
2023-02-28T16:32:19.992Z,99109.50
2023-02-28T16:35:14.951Z,99112.56
2023-02-28T16:38:03.005Z,99115.53
2023-02-28T16:40:53.350Z,99119.25
2023-02-28T16:43:41.361Z,99124.94
2023-02-28T16:46:33.530Z,99124.44
2023-02-28T16:49:21.940Z,99136.41
2023-02-28T16:52:11.210Z,99137.69
2023-02-28T16:55:01.058Z,99147.94
2023-02-28T16:57:52.726Z,99155.78
2023-02-28T17:00:40.679Z,99159.38
2023-02-28T17:03:33.978Z,99158.31
2023-02-28T17:06:24.382Z,99162.63
2023-02-28T17:09:18.530Z,99174.06
2023-02-28T17:12:07.312Z,99181.75
2023-02-28T17:14:55.426Z,99186.19
2023-02-28T17:17:44.764Z,99190.94
2023-02-28T17:20:32.988Z,99191.66
2023-02-28T17:23:20.723Z,99197.00
2023-02-28T17:26:18.585Z,99197.72
2023-02-28T17:29:15.207Z,99207.38
2023-02-28T17:32:16.035Z,99210.13
2023-02-28T17:35:05.585Z,99211.03
2023-02-28T17:37:53.406Z,99213.88
2023-02-28T17:40:41.727Z,99218.22
2023-02-28T17:43:30.789Z,99225.94
2023-02-28T17:46:21.727Z,99230.47
2023-02-28T17:49:10.732Z,99224.81
2023-02-28T17:51:58.905Z,99221.88
2023-02-28T17:54:46.686Z,99224.94
2023-02-28T17:57:34.675Z,99238.88
2023-02-28T18:00:25.922Z,99237.38
2023-02-28T18:03:14.291Z,99246.72
2023-02-28T18:06:02.691Z,99243.38
2023-02-28T18:08:52.424Z,99248.81
2023-02-28T18:11:44.822Z,99247.47
2023-02-28T18:14:32.774Z,99255.59
2023-02-28T18:17:22.125Z,99260.69
2023-02-28T18:20:11.418Z,99259.31
2023-02-28T18:22:59.073Z,99264.34
2023-02-28T18:25:47.204Z,99253.41
2023-02-28T18:28:35.029Z,99249.50
2023-02-28T18:31:23.036Z,99266.31
2023-02-28T18:34:12.343Z,99261.31
2023-02-28T18:37:00.378Z,99258.94
2023-02-28T18:39:48.892Z,99263.91
2023-02-28T18:42:36.515Z,99260.00
2023-02-28T18:45:24.526Z,99256.72
2023-02-28T18:48:13.381Z,99264.25
2023-02-28T18:51:07.997Z,99256.09
2023-02-28T18:53:56.110Z,99248.38
2023-02-28T18:56:44.740Z,99266.28
2023-02-28T18:59:32.731Z,99258.72
2023-02-28T19:02:20.756Z,99258.97
2023-02-28T19:05:11.577Z,99261.22
2023-02-28T19:08:01.339Z,99259.72
2023-02-28T19:10:49.383Z,99259.66
2023-02-28T19:13:37.611Z,99260.88
2023-02-28T19:16:27.630Z,99260.13
2023-02-28T19:19:15.826Z,99250.94
2023-02-28T19:22:03.657Z,99259.00
2023-02-28T19:24:53.638Z,99260.16
2023-02-28T19:27:41.702Z,99251.63
2023-02-28T19:30:30.018Z,99257.16
2023-02-28T19:33:18.039Z,99249.69
2023-02-28T19:36:06.505Z,99253.44
2023-02-28T19:38:54.119Z,99258.97
2023-02-28T19:41:43.562Z,99256.72
2023-02-28T19:44:31.327Z,99261.38
2023-02-28T19:47:19.630Z,99261.66
2023-02-28T19:50:08.440Z,99256.69
2023-02-28T19:52:58.019Z,99270.88
2023-02-28T19:55:49.263Z,99258.06
2023-02-28T19:58:39.343Z,99261.81
2023-02-28T20:01:27.319Z,99252.56
2023-02-28T20:04:15.340Z,99265.22
2023-02-28T20:07:03.013Z,99252.63
2023-02-28T20:09:51.287Z,99253.84
2023-02-28T20:12:39.258Z,99253.25
2023-02-28T20:15:29.013Z,99261.34
2023-02-28T20:18:17.027Z,99255.41
2023-02-28T20:21:05.485Z,99253.03
2023-02-28T20:23:53.777Z,99248.06
2023-02-28T20:26:42.162Z,99251.56
2023-02-28T20:29:30.299Z,99250.16
2023-02-28T20:32:20.234Z,99247.72
2023-02-28T20:35:11.537Z,99252.38
2023-02-28T20:37:59.687Z,99249.13
2023-02-28T20:40:47.790Z,99256.16
2023-02-28T20:43:36.690Z,99258.94
2023-02-28T20:46:24.612Z,99258.50
2023-02-28T20:49:15.122Z,99253.28
2023-02-28T20:52:03.104Z,99253.41
2023-02-28T20:54:51.502Z,99251.00
2023-02-28T20:57:40.168Z,99254.59
2023-02-28T21:00:28.273Z,99252.97
2023-02-28T21:03:16.409Z,99251.25
2023-02-28T21:06:06.037Z,99252.13
2023-02-28T21:08:54.328Z,99250.56
2023-02-28T21:11:42.946Z,99243.59
2023-02-28T21:14:32.168Z,99251.50
2023-02-28T21:17:20.022Z,99252.50
2023-02-28T21:20:08.778Z,99244.91
2023-02-28T21:22:58.017Z,99249.38
2023-02-28T21:25:45.977Z,99244.28
2023-02-28T21:28:34.535Z,99251.41
2023-02-28T21:31:24.271Z,99258.47
2023-02-28T21:34:13.722Z,99260.41
2023-02-28T21:37:01.612Z,99270.06
2023-02-28T21:39:51.523Z,99270.97
2023-02-28T21:42:39.113Z,99269.34
2023-02-28T21:45:27.153Z,99273.69
2023-02-28T21:48:14.893Z,99277.19
2023-02-28T21:51:05.070Z,99274.63
2023-02-28T21:53:53.395Z,99267.97
2023-02-28T21:56:42.794Z,99264.56
2023-02-28T21:59:30.844Z,99262.88
2023-02-28T22:02:18.734Z,99264.78
2023-02-28T22:05:07.312Z,99264.78
2023-02-28T22:07:55.347Z,99264.16
2023-02-28T22:10:43.206Z,99261.66
2023-02-28T22:13:32.629Z,99271.34
2023-02-28T22:16:21.773Z,99266.13
2023-02-28T22:19:09.850Z,99270.59
2023-02-28T22:21:57.741Z,99268.28
2023-02-28T22:24:45.631Z,99264.84
2023-02-28T22:27:34.634Z,99267.56
2023-02-28T22:30:24.071Z,99266.72
2023-02-28T22:33:11.854Z,99264.16
2023-02-28T22:36:07.608Z,99260.72
2023-02-28T22:38:55.841Z,99268.66
2023-02-28T22:41:43.730Z,99269.59
2023-02-28T22:44:31.689Z,99265.47
2023-02-28T22:47:22.301Z,99261.06
2023-02-28T22:50:11.758Z,99266.44
2023-02-28T22:52:59.445Z,99265.59
2023-02-28T22:55:54.933Z,99261.47
2023-02-28T22:58:44.933Z,99261.59
2023-02-28T23:01:35.654Z,99261.91
2023-02-28T23:04:26.894Z,99266.41
2023-02-28T23:07:16.097Z,99265.66
2023-02-28T23:10:06.488Z,99263.97
2023-02-28T23:12:54.413Z,99265.78
2023-02-28T23:15:42.666Z,99260.69
2023-02-28T23:18:30.321Z,99259.97
2023-02-28T23:21:19.692Z,99261.00
2023-02-28T23:24:10.426Z,99264.63
2023-02-28T23:26:59.506Z,99269.09
2023-02-28T23:29:47.551Z,99277.00
2023-02-28T23:32:35.381Z,99272.81
2023-02-28T23:35:23.254Z,99270.38
2023-02-28T23:38:12.670Z,99274.91
2023-02-28T23:41:00.687Z,99272.53
2023-02-28T23:43:48.795Z,99273.34
2023-02-28T23:46:37.424Z,99272.47
2023-02-28T23:49:25.737Z,99276.91
2023-02-28T23:52:13.682Z,99274.31
2023-02-28T23:55:02.835Z,99274.47
2023-02-28T23:57:50.495Z,99269.38
